Time;durP1;ratioP1;P1;durP2;ratioP2;P2;SDS_P1;SDS_P2;PMS_P1;PMS_P2;Temp;Humidity;BMP_temperature;BMP_pressure;BME280_temperature;BME280_humidity;BME280_pressure;Samples;Min_cycle;Max_cycle;Signal;HPM_P1;HPM_P2
2024/04/07 00:01:45;;;;;;;5.55;3.70;;;;;;;15.70;90.96;100798.88;8387999;28;20044;-81
2024/04/07 00:05:52;;;;;;;5.25;3.38;;;;;;;15.67;90.77;100798.25;8389151;28;20145;-82
2024/04/07 00:09:53;;;;;;;5.03;3.40;;;;;;;15.50;92.79;100802.38;8363549;28;21848;-82
2024/04/07 00:13:53;;;;;;;5.97;3.00;;;;;;;15.63;90.93;100799.72;8377523;28;22242;-81
2024/04/07 00:17:54;;;;;;;6.40;3.55;;;;;;;15.85;89.03;100799.47;8416443;28;20117;-81
2024/04/07 00:21:55;;;;;;;4.45;3.20;;;;;;;15.84;88.85;100801.34;8359326;28;20508;-82
2024/04/07 00:25:56;;;;;;;6.90;3.22;;;;;;;15.57;90.88;100802.38;8362901;28;20564;-82
2024/04/07 00:29:56;;;;;;;4.10;2.92;;;;;;;15.63;91.63;100799.72;8383973;28;20052;-80
2024/04/07 00:33:57;;;;;;;3.72;2.95;;;;;;;15.40;94.13;100799.25;8345026;28;20048;-80
2024/04/07 00:37:57;;;;;;;5.28;3.60;;;;;;;15.34;94.13;100792.81;8386702;28;20094;-80
2024/04/07 00:41:58;;;;;;;5.63;3.67;;;;;;;15.34;92.17;100794.69;8392818;28;20048;-81
2024/04/07 00:45:59;;;;;;;6.10;3.22;;;;;;;15.37;92.71;100778.91;8390472;28;20076;-82
2024/04/07 00:50:00;;;;;;;5.55;3.58;;;;;;;15.64;88.33;100785.16;8392837;28;20090;-81
2024/04/07 00:54:02;;;;;;;8.63;3.42;;;;;;;15.53;90.03;100788.44;8375319;28;20048;-81
2024/04/07 00:58:03;;;;;;;4.97;3.38;;;;;;;15.26;92.24;100781.38;8388868;28;20109;-81
2024/04/07 01:02:04;;;;;;;7.20;3.80;;;;;;;15.12;93.96;100788.66;8368835;28;20053;-81
2024/04/07 01:06:05;;;;;;;6.72;3.55;;;;;;;15.03;94.38;100788.00;8373432;28;20568;-81
2024/04/07 01:10:08;;;;;;;5.22;3.38;;;;;;;14.93;95.77;100787.59;8391680;28;20166;-81
2024/04/07 01:14:09;;;;;;;5.68;3.85;;;;;;;14.95;95.33;100781.97;8391959;28;20076;-81
2024/04/07 01:18:09;;;;;;;9.27;3.65;;;;;;;15.08;92.33;100768.50;8361924;28;20102;-80
2024/04/07 01:22:11;;;;;;;9.13;4.07;;;;;;;14.96;93.88;100773.69;8356926;28;20057;-81
2024/04/07 01:26:12;;;;;;;5.70;3.55;;;;;;;14.81;95.63;100777.59;8357970;28;20222;-81
2024/04/07 01:30:13;;;;;;;4.85;3.25;;;;;;;14.80;94.57;100760.56;8362198;28;20053;-80
2024/04/07 01:34:13;;;;;;;4.72;3.60;;;;;;;14.89;94.28;100770.13;8371840;28;20101;-80
2024/04/07 01:38:17;;;;;;;7.43;3.15;;;;;;;15.03;91.94;100762.88;8341494;28;20045;-81
2024/04/07 01:42:18;;;;;;;5.28;3.50;;;;;;;15.06;91.66;100744.41;8354775;28;20104;-82
2024/04/07 01:46:19;;;;;;;6.07;3.20;;;;;;;15.27;88.73;100735.31;8379807;28;20056;-81
2024/04/07 01:50:19;;;;;;;6.65;3.55;;;;;;;15.41;87.30;100744.22;8380854;28;20124;-81
2024/04/07 01:54:20;;;;;;;7.88;3.55;;;;;;;15.13;89.82;100741.75;8408123;28;20056;-81
2024/04/07 01:58:21;;;;;;;8.63;3.67;;;;;;;15.11;89.72;100734.91;8396999;28;20045;-80
2024/04/07 02:02:23;;;;;;;4.10;3.30;;;;;;;14.90;93.79;100746.66;8378217;28;20053;-80
2024/04/07 02:06:24;;;;;;;7.20;3.60;;;;;;;15.07;90.42;100731.75;8393950;28;20095;-80
2024/04/07 02:10:24;;;;;;;9.57;5.35;;;;;;;14.77;92.33;100726.75;8394965;28;20051;-81
2024/04/07 02:14:25;;;;;;;4.03;3.20;;;;;;;15.09;86.79;100725.09;8376440;28;20084;-80
2024/04/07 02:18:26;;;;;;;5.90;3.92;;;;;;;15.21;87.19;100721.78;8375459;28;20060;-80
2024/04/07 02:22:26;;;;;;;6.43;3.28;;;;;;;15.08;87.52;100722.63;8345032;28;20471;-80
2024/04/07 02:26:29;;;;;;;5.10;3.15;;;;;;;15.18;84.95;100722.22;8346647;28;20107;-80
2024/04/07 02:30:29;;;;;;;32.80;18.75;;;;;;;15.26;83.59;100720.13;8355621;28;20095;-80
2024/04/07 02:34:30;;;;;;;6.72;4.40;;;;;;;15.25;83.20;100721.16;8388079;28;20377;-81
2024/04/07 02:38:30;;;;;;;4.97;3.22;;;;;;;15.42;81.42;100718.88;8401991;28;20045;-80
2024/04/07 02:42:31;;;;;;;4.10;3.33;;;;;;;15.38;82.26;100721.16;8401593;28;20059;-80
2024/04/07 02:50:53;;;;;;;6.75;3.45;;;;;;;15.34;79.96;100711.00;8364564;28;20173;-80
2024/04/07 02:54:53;;;;;;;7.10;3.20;;;;;;;15.39;80.22;100722.81;8396515;28;20491;-82
2024/04/07 02:58:54;;;;;;;3.67;3.25;;;;;;;15.40;79.14;100718.25;8396013;28;20051;-82
2024/04/07 03:02:55;;;;;;;5.00;3.30;;;;;;;15.20;81.84;100717.44;8376894;28;20060;-82
2024/04/07 03:07:00;;;;;;;4.88;3.40;;;;;;;15.29;80.37;100717.03;8378361;28;20049;-82
2024/04/07 03:11:02;;;;;;;3.70;2.90;;;;;;;15.20;79.03;100712.88;8367963;28;20048;-82
2024/04/07 03:15:03;;;;;;;8.48;3.45;;;;;;;15.25;79.73;100713.06;8384921;28;20056;-81
2024/04/07 03:19:04;;;;;;;5.43;3.30;;;;;;;15.36;78.18;100704.34;8401622;28;20048;-81
2024/04/07 03:23:05;;;;;;;4.95;3.30;;;;;;;15.14;80.00;100705.63;8394134;28;20048;-81
2024/04/07 03:27:05;;;;;;;6.90;3.20;;;;;;;14.96;81.91;100708.94;8376634;28;20087;-81
2024/04/07 03:31:06;;;;;;;4.60;3.13;;;;;;;14.93;81.77;100701.25;8361167;28;20045;-81
2024/04/07 03:35:06;;;;;;;4.15;3.22;;;;;;;15.12;79.39;100699.59;8344936;28;20408;-81
2024/04/07 03:39:07;;;;;;;5.88;3.65;;;;;;;14.90;81.10;100704.34;8346494;28;20053;-81
2024/04/07 03:43:08;;;;;;;5.28;3.60;;;;;;;14.96;79.83;100702.72;8374227;28;20057;-82
2024/04/07 03:47:09;;;;;;;8.80;3.88;;;;;;;14.94;81.17;100704.78;8352797;28;20061;-81
2024/04/07 03:51:11;;;;;;;4.05;3.38;;;;;;;14.70;83.99;100707.00;8360577;28;20052;-81
2024/04/07 03:55:12;;;;;;;5.57;3.67;;;;;;;14.50;84.15;100711.53;8369723;28;20095;-82
2024/04/07 03:59:13;;;;;;;5.00;3.42;;;;;;;14.64;84.10;100705.16;8388501;28;20064;-81
2024/04/07 04:03:15;;;;;;;6.47;3.58;;;;;;;14.41;88.10;100710.03;8399642;28;20056;-82
2024/04/07 04:07:16;;;;;;;5.18;3.63;;;;;;;14.41;87.79;100712.75;8375280;28;20063;-82
2024/04/07 04:11:16;;;;;;;5.95;3.90;;;;;;;14.46;84.03;100705.72;8393795;28;20056;-82
2024/04/07 04:15:17;;;;;;;6.40;3.30;;;;;;;14.47;85.27;100698.47;8375568;28;20056;-82
2024/04/07 04:19:18;;;;;;;7.75;3.30;;;;;;;14.41;86.41;100700.09;8358604;28;20072;-82
2024/04/07 04:23:19;;;;;;;4.50;3.58;;;;;;;14.55;85.04;100692.03;8343319;28;20067;-82
2024/04/07 04:27:19;;;;;;;6.75;3.40;;;;;;;14.46;84.55;100691.41;8358829;28;20323;-82
2024/04/07 04:31:20;;;;;;;4.57;3.58;;;;;;;14.10;85.28;100683.59;8361611;28;20053;-82
2024/04/07 04:35:21;;;;;;;8.10;3.88;;;;;;;14.22;84.94;100687.34;8368929;28;20058;-82
2024/04/07 04:39:24;;;;;;;5.85;4.28;;;;;;;14.04;84.77;100685.22;8372651;28;20072;-82
2024/04/07 04:43:25;;;;;;;6.90;3.72;;;;;;;14.33;84.16;100681.41;8372803;28;20083;-83
2024/04/07 04:47:26;;;;;;;7.47;3.67;;;;;;;14.41;83.05;100677.69;8357147;28;20056;-82
2024/04/07 04:51:27;;;;;;;5.05;3.90;;;;;;;14.34;82.87;100674.13;8370357;28;20506;-82
2024/04/07 04:55:27;;;;;;;5.82;3.58;;;;;;;14.21;85.56;100668.69;8366097;28;20045;-82
2024/04/07 04:59:28;;;;;;;9.27;3.95;;;;;;;14.38;82.51;100667.31;8383061;28;20454;-82
2024/04/07 05:03:29;;;;;;;6.32;4.00;;;;;;;14.54;81.20;100661.56;8345527;28;20053;-82
2024/04/07 05:07:29;;;;;;;5.70;3.85;;;;;;;14.48;80.04;100657.84;8367033;28;20052;-83
2024/04/07 05:11:30;;;;;;;4.90;3.42;;;;;;;14.61;78.70;100661.59;8377571;28;20053;-82
2024/04/07 05:15:31;;;;;;;6.97;3.55;;;;;;;14.47;77.62;100664.25;8384899;28;20052;-82
2024/04/07 05:19:31;;;;;;;6.32;3.28;;;;;;;14.61;75.63;100664.28;8364989;28;20052;-83
2024/04/07 05:23:36;;;;;;;5.88;3.42;;;;;;;14.72;74.25;100674.44;8377198;28;20053;-83
2024/04/07 05:27:37;;;;;;;5.15;3.53;;;;;;;14.75;75.81;100682.97;8388221;28;20048;-83
2024/04/07 05:31:38;;;;;;;5.75;3.70;;;;;;;14.83;73.91;100675.72;8385399;28;20060;-83
2024/04/07 05:35:38;;;;;;;5.20;2.80;;;;;;;14.80;74.49;100674.25;8355343;28;20061;-83
2024/04/07 05:39:39;;;;;;;5.38;3.40;;;;;;;14.99;73.02;100668.03;8355767;28;20127;-83
2024/04/07 05:43:39;;;;;;;4.55;3.13;;;;;;;15.09;71.49;100670.31;8388918;28;20079;-82
2024/04/07 05:47:42;;;;;;;4.78;3.28;;;;;;;15.22;70.79;100682.97;8378585;28;20060;-82
2024/04/07 05:51:43;;;;;;;4.03;3.35;;;;;;;15.45;69.47;100683.38;8391631;28;20056;-82
2024/04/07 05:55:44;;;;;;;3.85;3.28;;;;;;;15.37;69.94;100694.38;8385044;28;20063;-82
2024/04/07 05:59:48;;;;;;;4.97;3.00;;;;;;;15.47;70.80;100702.91;8394150;28;20124;-81
2024/04/07 06:03:48;;;;;;;5.93;3.05;;;;;;;15.69;68.31;100714.31;8415371;28;20052;-80
2024/04/07 06:07:51;;;;;;;5.72;3.28;;;;;;;15.73;68.77;100726.34;8399123;28;20056;-81
2024/04/07 06:11:51;;;;;;;6.38;3.28;;;;;;;15.81;68.92;100758.56;8381196;28;20075;-80
2024/04/07 06:15:52;;;;;;;6.65;3.38;;;;;;;15.77;70.00;100735.69;8382120;28;20057;-80
2024/04/07 06:19:53;;;;;;;6.57;3.30;;;;;;;15.86;70.02;100752.50;8361605;28;20044;-79
2024/04/07 06:23:54;;;;;;;4.40;3.20;;;;;;;15.95;68.83;100780.94;8399712;28;20048;-80
2024/04/07 06:27:54;;;;;;;5.07;3.60;;;;;;;16.22;68.31;100793.34;8396855;28;20048;-81
2024/04/07 06:31:55;;;;;;;4.35;3.60;;;;;;;16.49;69.42;100794.09;8384004;28;20052;-81
2024/04/07 06:35:57;;;;;;;7.18;3.60;;;;;;;16.58;67.55;100789.25;8384955;28;20056;-81
2024/04/07 06:39:58;;;;;;;5.72;3.63;;;;;;;16.70;64.85;100790.28;8412730;28;20049;-82
2024/04/07 06:43:59;;;;;;;6.32;3.30;;;;;;;16.95;64.01;100782.22;8402773;28;20070;-80
2024/04/07 06:47:59;;;;;;;5.20;2.80;;;;;;;17.23;61.91;100797.25;8391533;28;20049;-83
2024/04/07 06:52:00;;;;;;;4.95;3.03;;;;;;;17.57;61.56;100802.19;8402570;28;20047;-81
2024/04/07 06:56:01;;;;;;;3.58;2.67;;;;;;;17.69;60.04;100795.00;8412262;28;20060;-81
2024/04/07 07:00:01;;;;;;;5.47;2.97;;;;;;;17.80;60.13;100811.59;8407717;28;20096;-82
2024/04/07 07:04:04;;;;;;;5.10;2.50;;;;;;;18.02;59.52;100820.97;8361422;28;20057;-82
2024/04/07 07:08:05;;;;;;;4.70;2.83;;;;;;;18.00;59.72;100815.78;8393651;28;20097;-83
2024/04/07 07:12:05;;;;;;;4.50;2.60;;;;;;;18.18;58.28;100822.28;8387568;28;20048;-83
2024/04/07 07:16:06;;;;;;;3.90;2.60;;;;;;;18.47;57.56;100832.38;8388771;28;20083;-83
2024/04/07 07:20:07;;;;;;;4.25;2.10;;;;;;;18.77;57.93;100828.91;8400165;28;20048;-82
2024/04/07 07:24:08;;;;;;;4.00;2.10;;;;;;;18.82;57.42;100843.44;8351067;28;20057;-83
2024/04/07 07:28:09;;;;;;;2.55;1.80;;;;;;;18.82;56.89;100846.16;8382699;28;20084;-81
2024/04/07 07:32:11;;;;;;;3.33;1.70;;;;;;;19.12;56.07;100845.34;8357276;28;20088;-83
2024/04/07 07:36:12;;;;;;;6.20;2.17;;;;;;;19.31;54.64;100843.41;8379881;28;20052;-81
2024/04/07 07:40:12;;;;;;;2.97;1.60;;;;;;;19.11;53.29;100844.53;8400967;28;20045;-82
2024/04/07 07:44:13;;;;;;;2.97;1.70;;;;;;;19.50;54.62;100853.13;8371068;28;20063;-83
2024/04/07 07:48:14;;;;;;;2.17;1.40;;;;;;;19.77;52.70;100867.16;8392370;28;20140;-82
2024/04/07 07:52:14;;;;;;;3.45;1.58;;;;;;;19.62;51.74;100869.50;8392447;28;20056;-83
2024/04/07 07:56:15;;;;;;;2.28;1.60;;;;;;;19.88;52.66;100878.03;8389134;28;20086;-83
2024/04/07 08:00:16;;;;;;;3.47;1.90;;;;;;;19.84;53.23;100874.13;8396945;28;20106;-83
2024/04/07 08:04:17;;;;;;;2.40;1.70;;;;;;;19.83;52.51;100890.69;8401295;28;20053;-83
2024/04/07 08:08:19;;;;;;;2.85;1.63;;;;;;;19.88;52.29;100897.06;8387972;28;20052;-82
2024/04/07 08:12:20;;;;;;;3.22;1.70;;;;;;;20.10;49.40;100900.03;8386024;28;20108;-82
2024/04/07 08:16:20;;;;;;;3.22;1.27;;;;;;;20.38;50.60;100904.78;8387204;28;20060;-82
2024/04/07 08:20:21;;;;;;;2.90;1.90;;;;;;;20.26;51.99;100905.84;8388545;28;20048;-83
2024/04/07 08:24:22;;;;;;;2.25;1.42;;;;;;;20.74;48.98;100917.31;8388369;28;20091;-83
2024/04/07 08:28:24;;;;;;;4.95;1.67;;;;;;;20.84;48.81;100924.88;8386865;28;20052;-83
2024/04/07 08:32:24;;;;;;;4.15;2.00;;;;;;;21.08;48.99;100926.44;8387910;28;20080;-82
2024/04/07 08:36:25;;;;;;;2.88;1.90;;;;;;;21.46;49.93;100930.47;8404304;28;20057;-85
2024/04/07 08:40:25;;;;;;;2.72;1.80;;;;;;;21.97;49.56;100934.09;8405267;28;20049;-82
2024/04/07 08:44:27;;;;;;;3.65;2.00;;;;;;;22.12;48.12;100936.28;8361519;28;20059;-83
2024/04/07 08:48:28;;;;;;;3.17;2.00;;;;;;;22.74;47.08;100936.09;8389965;28;20090;-83
2024/04/07 08:52:30;;;;;;;6.40;1.80;;;;;;;22.53;43.68;100948.63;8389663;28;20098;-83
2024/04/07 08:56:36;;;;;;;3.70;1.48;;;;;;;22.40;40.27;100959.91;8389934;28;20076;-84
2024/04/07 09:00:43;;;;;;;8.18;2.08;;;;;;;23.07;41.89;100976.97;8393078;28;20419;-83
2024/04/07 09:04:44;;;;;;;3.88;1.50;;;;;;;22.66;39.96;100994.69;8391081;28;20141;-80
2024/04/07 09:08:45;;;;;;;4.68;1.25;;;;;;;22.78;40.33;100983.66;8387013;28;20049;-81
2024/04/07 09:12:46;;;;;;;7.25;1.92;;;;;;;23.04;40.73;100976.66;8370613;28;20057;-79
2024/04/07 09:16:47;;;;;;;7.68;1.58;;;;;;;22.52;40.81;100994.22;8357526;28;20154;-79
2024/04/07 09:20:47;;;;;;;6.13;1.80;;;;;;;22.78;40.31;101000.06;8354917;28;20049;-80
2024/04/07 09:24:48;;;;;;;3.90;1.85;;;;;;;22.40;40.75;100998.13;8358321;28;20060;-81
2024/04/07 09:28:49;;;;;;;8.38;1.40;;;;;;;22.24;40.94;100986.97;8373994;28;20464;-81
2024/04/07 09:32:50;;;;;;;3.67;1.35;;;;;;;22.80;40.18;100993.25;8391260;28;20145;-82
2024/04/07 09:36:54;;;;;;;5.25;1.55;;;;;;;23.16;40.81;100994.59;8374034;28;20512;-82
2024/04/07 09:41:01;;;;;;;3.38;1.55;;;;;;;23.33;40.69;100997.25;8392332;28;20080;-82
2024/04/07 09:45:03;;;;;;;4.40;1.50;;;;;;;23.00;40.62;101000.94;8374013;28;20083;-81
2024/04/07 09:49:08;;;;;;;2.65;1.30;;;;;;;22.19;42.30;101002.41;8388183;28;20106;-79
2024/04/07 09:53:17;;;;;;;3.92;1.60;;;;;;;22.49;43.01;101016.56;8388128;28;20091;-81
2024/04/07 09:57:18;;;;;;;6.20;2.05;;;;;;;22.90;42.81;101011.72;8388194;28;20080;-80
2024/04/07 10:01:21;;;;;;;5.22;1.80;;;;;;;22.16;43.21;101028.28;8391167;28;20041;-83
2024/04/07 10:05:21;;;;;;;5.60;1.45;;;;;;;22.40;43.38;101019.97;8394729;28;20503;-81
2024/04/07 10:09:23;;;;;;;5.05;1.67;;;;;;;22.05;43.61;101021.03;8399219;28;20052;-78
2024/04/07 10:13:24;;;;;;;7.47;2.08;;;;;;;22.62;44.03;101034.50;8402694;28;20078;-79
2024/04/07 10:17:27;;;;;;;7.40;2.35;;;;;;;22.52;42.70;101037.88;8386661;28;20049;-81
2024/04/07 10:21:28;;;;;;;4.05;1.80;;;;;;;22.71;42.54;101019.34;8358729;28;20084;-79
2024/04/07 10:25:35;;;;;;;4.72;1.90;;;;;;;22.86;43.08;101049.63;8352184;28;20083;-84
2024/04/07 10:29:37;;;;;;;2.60;1.60;;;;;;;22.31;42.92;101044.09;8377440;28;20087;-82
2024/04/07 10:33:38;;;;;;;2.78;1.70;;;;;;;22.11;43.60;101054.66;8394697;28;20092;-83
2024/04/07 10:37:41;;;;;;;4.85;1.73;;;;;;;21.66;44.73;101074.50;8394551;28;20052;-83
2024/04/07 10:41:42;;;;;;;8.15;2.13;;;;;;;21.96;44.29;101063.38;8387117;28;20059;-82
2024/04/07 10:45:43;;;;;;;7.72;2.22;;;;;;;21.78;44.77;101056.22;8382031;28;20084;-81
2024/04/07 10:49:44;;;;;;;5.60;2.00;;;;;;;21.80;44.93;101083.22;8394044;28;20067;-81
2024/04/07 10:53:46;;;;;;;6.68;2.92;;;;;;;21.97;46.60;101092.28;8396066;28;20052;-82
2024/04/07 10:57:46;;;;;;;9.48;2.20;;;;;;;22.00;45.93;101088.25;8394340;28;20532;-82
2024/04/07 11:01:47;;;;;;;5.00;2.00;;;;;;;21.86;45.93;101093.16;8392563;28;20106;-80
2024/04/07 11:05:48;;;;;;;5.82;1.80;;;;;;;22.29;45.63;101087.19;8374781;28;20063;-82
2024/04/07 11:09:49;;;;;;;7.35;2.45;;;;;;;21.57;46.12;101093.16;8393429;28;20090;-81
2024/04/07 11:13:50;;;;;;;7.55;2.00;;;;;;;21.73;46.95;101101.66;8378155;28;20110;-83
2024/04/07 11:17:50;;;;;;;3.83;2.03;;;;;;;21.59;47.04;101084.72;8375268;28;20067;-81
2024/04/07 11:21:52;;;;;;;5.00;2.00;;;;;;;22.03;47.43;101115.84;8393740;28;20420;-82
2024/04/07 11:25:54;;;;;;;9.55;2.40;;;;;;;22.35;45.53;101118.13;8376827;28;20087;-81
2024/04/07 11:29:55;;;;;;;5.72;1.98;;;;;;;22.11;45.63;101107.31;8393640;28;20137;-83
2024/04/07 11:33:55;;;;;;;4.32;1.92;;;;;;;23.06;43.51;101109.19;8392590;28;20153;-81
2024/04/07 11:37:56;;;;;;;4.03;1.83;;;;;;;23.26;43.56;101113.34;8383466;28;20500;-83
2024/04/07 11:41:57;;;;;;;4.47;1.77;;;;;;;24.43;41.75;101126.50;8403092;28;20048;-81
2024/04/07 11:45:58;;;;;;;4.03;1.58;;;;;;;23.88;42.10;101122.06;8403887;28;20123;-80
2024/04/07 11:49:58;;;;;;;3.83;1.60;;;;;;;23.48;42.42;101127.03;8402123;28;20084;-83
2024/04/07 11:53:59;;;;;;;3.53;2.20;;;;;;;24.89;40.75;101118.69;8397079;28;20048;-82
2024/04/07 11:58:00;;;;;;;10.55;4.15;;;;;;;24.37;41.32;101104.81;8381653;28;20076;-81
2024/04/07 12:02:00;;;;;;;4.03;1.83;;;;;;;25.37;40.02;101100.38;8409239;28;20056;-80
2024/04/07 12:06:01;;;;;;;7.50;2.10;;;;;;;26.01;38.50;101097.31;8408542;28;20052;-80
2024/04/07 12:10:02;;;;;;;4.60;1.90;;;;;;;26.20;39.16;101103.13;8405779;28;20135;-78
2024/04/07 12:14:03;;;;;;;5.60;3.10;;;;;;;25.49;38.85;101107.25;8399286;28;20060;-79
2024/04/07 12:18:04;;;;;;;5.82;1.77;;;;;;;25.25;38.46;101097.81;8397902;28;20113;-80
2024/04/07 12:22:16;;;;;;;4.25;1.92;;;;;;;25.35;39.64;101102.56;8393322;28;20131;-82
2024/04/07 12:26:17;;;;;;;3.60;1.75;;;;;;;25.05;39.68;101104.03;8394748;28;20094;-82
2024/04/07 12:30:19;;;;;;;7.15;1.98;;;;;;;25.43;39.83;101110.25;8396872;28;20072;-83
2024/04/07 12:34:20;;;;;;;4.18;1.95;;;;;;;25.54;38.38;101114.72;8398117;28;20049;-83
2024/04/07 12:38:21;;;;;;;4.93;1.67;;;;;;;24.22;39.72;101117.25;8373292;28;20045;-79
2024/04/07 12:42:21;;;;;;;3.63;1.55;;;;;;;24.55;41.04;101120.88;8391332;28;20116;-82
2024/04/07 12:46:22;;;;;;;3.70;1.63;;;;;;;24.69;41.06;101113.03;8393237;28;20169;-82
2024/04/07 12:50:23;;;;;;;4.05;1.73;;;;;;;24.51;41.95;101111.53;8397531;28;20056;-78
2024/04/07 12:54:24;;;;;;;4.45;1.85;;;;;;;24.55;40.67;101104.44;8399340;28;20056;-80
2024/04/07 12:58:24;;;;;;;8.40;2.70;;;;;;;24.22;41.64;101092.59;8396416;28;20045;-80
2024/04/07 13:02:25;;;;;;;5.10;1.60;;;;;;;24.07;41.45;101084.25;8380597;28;20098;-81
2024/04/07 13:06:26;;;;;;;8.07;1.80;;;;;;;24.64;40.60;101075.47;8392950;28;20060;-80
2024/04/07 13:10:28;;;;;;;5.10;1.52;;;;;;;24.88;39.91;101079.50;8388743;28;20408;-78
2024/04/07 13:14:28;;;;;;;6.18;1.95;;;;;;;23.98;41.29;101062.00;8364450;28;20064;-80
2024/04/07 13:18:30;;;;;;;3.10;1.52;;;;;;;24.69;40.43;101056.34;8375418;28;20127;-79
2024/04/07 13:22:31;;;;;;;4.40;1.95;;;;;;;25.27;40.00;101050.94;8394994;28;20080;-78
2024/04/07 13:26:32;;;;;;;4.53;1.55;;;;;;;25.13;41.10;101034.97;8378499;28;20082;-81
2024/04/07 13:30:35;;;;;;;4.82;1.63;;;;;;;24.86;40.87;101034.25;8394043;28;20138;-79
2024/04/07 13:34:36;;;;;;;4.90;1.88;;;;;;;26.46;38.09;101025.19;8384718;28;20048;-79
2024/04/07 13:38:37;;;;;;;4.25;1.60;;;;;;;26.06;39.59;101042.44;8388314;28;20052;-79
2024/04/07 13:42:39;;;;;;;4.50;1.63;;;;;;;25.67;39.34;101034.63;8404735;28;20053;-79
2024/04/07 13:46:40;;;;;;;3.92;1.52;;;;;;;25.81;39.79;101030.31;8404349;28;20048;-79
2024/04/07 13:50:41;;;;;;;3.63;1.77;;;;;;;25.22;40.94;101030.66;8412044;28;20047;-81
2024/04/07 13:54:43;;;;;;;6.40;2.20;;;;;;;25.35;37.92;101032.09;8412313;28;20045;-80
2024/04/07 13:58:44;;;;;;;6.10;1.73;;;;;;;25.75;37.90;101019.63;8402075;28;20142;-78
2024/04/07 14:02:44;;;;;;;5.10;1.70;;;;;;;26.27;37.77;101021.31;8395428;28;20099;-78
2024/04/07 14:06:45;;;;;;;5.95;1.60;;;;;;;26.76;38.79;101018.00;8380470;28;20056;-79
2024/04/07 14:10:48;;;;;;;6.38;1.67;;;;;;;26.49;37.11;101037.53;8403634;28;20070;-79
2024/04/07 14:14:48;;;;;;;4.78;1.70;;;;;;;25.44;38.52;101037.84;8406464;28;20048;-78
2024/04/07 14:18:49;;;;;;;5.72;1.40;;;;;;;25.31;39.22;101019.16;8405813;28;20102;-79
2024/04/07 14:22:49;;;;;;;8.23;2.17;;;;;;;;;;8411222;28;20056;-79
2024/04/07 14:26:50;;;;;;;10.18;1.75;;;;;;;25.06;39.65;101020.69;8404582;28;20515;-80
2024/04/07 14:30:51;;;;;;;5.32;2.10;;;;;;;26.30;38.03;101026.25;8388943;28;20084;-79
2024/04/07 14:34:51;;;;;;;5.88;1.52;;;;;;;25.12;38.76;101018.81;8403657;28;20056;-80
2024/04/07 14:38:52;;;;;;;7.45;1.70;;;;;;;26.17;37.39;101016.63;8400080;28;20050;-81
2024/04/07 14:42:53;;;;;;;9.02;2.05;;;;;;;26.65;37.51;101004.28;8402405;28;20091;-80
2024/04/07 14:46:53;;;;;;;5.13;1.60;;;;;;;25.06;39.69;101015.22;8401600;28;20070;-80
2024/04/07 14:51:00;;;;;;;6.40;1.65;;;;;;;25.65;39.80;101003.09;8407385;28;20527;-80
2024/04/07 14:55:02;;;;;;;7.47;2.10;;;;;;;25.12;40.23;100999.63;8390230;28;20052;-81
2024/04/07 14:59:03;;;;;;;5.45;1.90;;;;;;;25.27;40.79;101001.59;8403887;28;20071;-80
2024/04/07 15:03:05;;;;;;;4.40;1.55;;;;;;;24.98;41.49;100992.94;8404877;28;20160;-79
2024/04/07 15:07:06;;;;;;;9.98;2.20;;;;;;;24.54;41.46;101002.28;8386631;28;20403;-80
2024/04/07 15:11:10;;;;;;;6.10;1.55;;;;;;;24.39;43.16;100988.47;8372800;28;20056;-80
2024/04/07 15:15:13;;;;;;;6.85;1.95;;;;;;;24.46;42.51;100993.72;8371817;28;20052;-79
2024/04/07 15:19:15;;;;;;;7.70;1.98;;;;;;;24.54;42.59;100987.75;8408427;28;20106;-80
2024/04/07 15:23:22;;;;;;;5.07;1.80;;;;;;;24.80;42.74;100986.81;8404766;28;20083;-81
2024/04/07 15:27:23;;;;;;;5.82;1.75;;;;;;;24.53;41.82;100980.63;8388162;28;20078;-83
2024/04/07 15:31:24;;;;;;;8.45;1.77;;;;;;;24.44;42.23;100985.75;8400359;28;20053;-82
2024/04/07 15:35:25;;;;;;;5.15;1.30;;;;;;;24.37;42.72;100985.19;8384496;28;20059;-81
2024/04/07 15:39:26;;;;;;;4.03;1.50;;;;;;;24.59;43.69;100971.34;8383377;28;20055;-82
2024/04/07 15:43:27;;;;;;;6.80;1.70;;;;;;;24.46;43.80;100978.09;8381890;28;20052;-83
2024/04/07 15:47:28;;;;;;;7.72;2.53;;;;;;;24.09;44.33;100979.97;8398856;28;20056;-81
2024/04/07 15:51:29;;;;;;;5.18;2.05;;;;;;;23.94;44.80;100977.94;8397442;28;20095;-83
2024/04/07 15:55:30;;;;;;;6.22;1.90;;;;;;;23.68;44.88;100996.03;8380298;28;20524;-82
2024/04/07 15:59:31;;;;;;;9.00;1.65;;;;;;;23.84;45.17;100991.53;8405368;28;20060;-83
2024/04/07 16:03:35;;;;;;;5.82;1.73;;;;;;;23.65;45.68;100980.97;8357885;28;20056;-81
2024/04/07 16:07:36;;;;;;;9.63;3.15;;;;;;;23.96;45.71;100975.78;8368079;28;20052;-81
2024/04/07 16:11:39;;;;;;;8.13;2.40;;;;;;;23.57;46.42;100975.13;8407272;28;20044;-82
2024/04/07 16:15:40;;;;;;;4.28;1.95;;;;;;;24.13;46.25;100962.81;8403639;28;20049;-81
2024/04/07 16:19:41;;;;;;;6.25;2.75;;;;;;;23.86;46.54;100965.56;8383069;28;20142;-82
2024/04/07 16:23:42;;;;;;;4.55;2.00;;;;;;;23.71;46.68;100976.34;8393808;28;20066;-80
2024/04/07 16:27:42;;;;;;;4.63;1.88;;;;;;;23.75;46.91;100975.56;8392537;28;20520;-80
2024/04/07 16:31:46;;;;;;;5.30;1.80;;;;;;;23.48;47.56;100977.47;8387256;28;20057;-82
2024/04/07 16:35:52;;;;;;;5.43;1.70;;;;;;;23.24;48.56;100967.88;8373725;28;20087;-81
2024/04/07 16:39:53;;;;;;;6.50;1.75;;;;;;;23.04;48.10;100954.81;8397113;28;20094;-83
2024/04/07 16:43:54;;;;;;;3.70;2.05;;;;;;;22.95;48.87;100964.53;8377413;28;20502;-81
2024/04/07 16:47:55;;;;;;;10.55;2.28;;;;;;;23.00;48.01;100961.84;8397952;28;20071;-80
2024/04/07 16:51:57;;;;;;;5.05;1.98;;;;;;;22.97;48.82;100967.84;8380562;28;20091;-81
2024/04/07 16:55:57;;;;;;;8.23;1.92;;;;;;;22.60;49.80;100964.84;8397392;28;20053;-82
2024/04/07 16:59:59;;;;;;;11.02;2.40;;;;;;;22.43;50.57;100960.22;8398261;28;20131;-82
2024/04/07 17:03:59;;;;;;;8.15;1.80;;;;;;;22.50;50.15;100968.25;8397620;28;20060;-79
2024/04/07 17:08:00;;;;;;;8.82;2.08;;;;;;;22.10;50.98;100960.25;8381720;28;20059;-80
2024/04/07 17:12:00;;;;;;;5.78;2.00;;;;;;;21.90;51.63;100967.00;8398177;28;20109;-81
2024/04/07 17:16:03;;;;;;;7.10;2.25;;;;;;;21.88;51.52;100977.31;8382538;28;20056;-81
2024/04/07 17:20:05;;;;;;;7.13;1.92;;;;;;;22.06;50.63;100970.00;8369351;28;20052;-81
2024/04/07 17:24:05;;;;;;;6.13;1.85;;;;;;;21.70;51.13;100963.91;8362900;28;20060;-82
2024/04/07 17:28:06;;;;;;;6.30;2.15;;;;;;;22.10;50.23;100961.06;8366909;28;20057;-81
2024/04/07 17:32:07;;;;;;;6.07;1.83;;;;;;;22.18;50.52;100959.81;8366497;28;20060;-82
2024/04/07 17:36:07;;;;;;;7.30;2.97;;;;;;;22.09;52.07;100953.16;8369550;28;20082;-82
2024/04/07 17:40:08;;;;;;;6.05;2.35;;;;;;;21.86;52.67;100946.72;8398094;28;20123;-83
2024/04/07 17:44:09;;;;;;;5.50;2.15;;;;;;;21.91;52.62;100940.53;8402748;28;20079;-82
2024/04/07 17:48:10;;;;;;;9.10;2.58;;;;;;;21.89;52.09;100946.25;8401294;28;20049;-81
2024/04/07 17:52:10;;;;;;;8.63;3.17;;;;;;;21.79;52.65;100943.34;8398691;28;20056;-82
2024/04/07 17:56:11;;;;;;;11.23;4.90;;;;;;;21.96;52.22;100943.34;8395082;28;20063;-80
2024/04/07 18:00:12;;;;;;;6.43;1.98;;;;;;;21.74;53.06;100939.69;8382005;28;20105;-82
2024/04/07 18:04:13;;;;;;;5.32;2.28;;;;;;;21.59;53.54;100942.97;8396177;28;20361;-83
2024/04/07 18:08:14;;;;;;;6.63;2.10;;;;;;;21.47;54.49;100959.38;8410636;28;20116;-81
2024/04/07 18:12:15;;;;;;;8.93;1.90;;;;;;;21.32;54.81;100959.06;8406580;28;20142;-82
2024/04/07 18:16:17;;;;;;;4.95;1.98;;;;;;;21.41;54.71;100965.81;8384880;28;20052;-82
2024/04/07 18:20:18;;;;;;;6.28;2.22;;;;;;;21.27;54.77;100959.00;8381644;28;20052;-82
2024/04/07 18:24:19;;;;;;;5.50;2.35;;;;;;;20.96;55.95;100961.06;8423563;28;20036;-80
2024/04/07 18:28:19;;;;;;;7.55;2.17;;;;;;;21.20;55.87;100955.56;8384512;28;20488;-82
2024/04/07 18:32:20;;;;;;;9.55;3.45;;;;;;;21.04;57.15;100949.78;8371998;28;20143;-77
2024/04/07 18:36:22;;;;;;;8.57;3.20;;;;;;;20.89;58.06;100952.19;8378329;28;20052;-79
2024/04/07 18:40:24;;;;;;;11.07;3.55;;;;;;;20.71;58.35;100955.91;8398577;28;20083;-81
2024/04/07 18:44:25;;;;;;;13.05;3.15;;;;;;;20.99;57.23;100965.19;8396753;28;20095;-80
2024/04/07 18:48:26;;;;;;;6.32;2.38;;;;;;;20.70;57.15;100959.69;8394167;28;20078;-79